Time;durP1;ratioP1;P1;durP2;ratioP2;P2;SDS_P1;SDS_P2;PMS_P1;PMS_P2;Temp;Humidity;BMP_temperature;BMP_pressure;BME280_temperature;BME280_humidity;BME280_pressure;Samples;Min_cycle;Max_cycle;Signal;HPM_P1;HPM_P2
2023/01/12 00:01:35;;;;;;;1.15;1.13;;;;;;;;;;5026296;28;20080;-70
2023/01/12 00:04:02;;;;;;;0.20;0.20;;;;;;;;;;5027174;28;20021;-69
2023/01/12 00:06:27;;;;;;;0.45;0.45;;;;;;;;;;5029699;28;20036;-69
2023/01/12 00:08:53;;;;;;;0.57;0.57;;;;;;;;;;5033414;28;20026;-70
2023/01/12 00:11:19;;;;;;;1.90;1.85;;;;;;;;;;5032840;28;20032;-69
2023/01/12 00:13:45;;;;;;;0.22;0.22;;;;;;;;;;5032773;28;20032;-69
2023/01/12 00:18:59;;;;;;;8.00;4.78;;;;;;;;;;5035716;28;20022;-68
2023/01/12 00:21:25;;;;;;;1.75;1.65;;;;;;;;;;5036558;28;20368;-69
2023/01/12 00:23:50;;;;;;;0.75;0.70;;;;;;;;;;5036628;28;20021;-68
2023/01/12 00:26:15;;;;;;;0.82;0.80;;;;;;;;;;5033016;28;20025;-71
2023/01/12 00:28:41;;;;;;;6.30;3.42;;;;;;;;;;5034678;28;20018;-70
2023/01/12 00:31:09;;;;;;;0.30;0.30;;;;;;;;;;5035026;28;20033;-70
2023/01/12 00:33:35;;;;;;;3.13;2.85;;;;;;;;;;5036942;28;20091;-70
2023/01/12 00:36:08;;;;;;;1.85;1.75;;;;;;;;;;5035590;28;20465;-70
2023/01/12 00:38:37;;;;;;;5.03;4.57;;;;;;;;;;5034536;28;20044;-70
2023/01/12 00:41:03;;;;;;;4.70;4.30;;;;;;;;;;5035688;28;20021;-70
2023/01/12 00:46:12;;;;;;;1.88;1.80;;;;;;;;;;5032976;28;20040;-70
2023/01/12 00:48:39;;;;;;;5.90;4.22;;;;;;;;;;5035633;28;20065;-69
2023/01/12 00:51:05;;;;;;;0.10;0.10;;;;;;;;;;5035994;28;20065;-69
2023/01/12 00:53:30;;;;;;;1.20;1.20;;;;;;;;;;5035572;28;20017;-70
2023/01/12 00:56:02;;;;;;;0.52;0.52;;;;;;;;;;5035998;28;20107;-70
2023/01/12 00:58:28;;;;;;;0.60;0.60;;;;;;;;;;5035786;28;20026;-71
2023/01/12 01:00:54;;;;;;;0.52;0.52;;;;;;;;;;5035842;28;20029;-71
2023/01/12 01:03:20;;;;;;;0.52;0.52;;;;;;;;;;5036140;28;20124;-71
2023/01/12 01:05:45;;;;;;;0.65;0.65;;;;;;;;;;5035843;28;20104;-71
2023/01/12 01:08:11;;;;;;;0.38;0.35;;;;;;;;;;5035618;28;20109;-71
2023/01/12 01:10:36;;;;;;;0.55;0.55;;;;;;;;;;5035831;28;20044;-71
2023/01/12 01:13:02;;;;;;;1.55;1.45;;;;;;;;;;5035650;28;20049;-71
2023/01/12 01:15:27;;;;;;;0.10;0.10;;;;;;;;;;5036097;28;20060;-70
2023/01/12 01:17:53;;;;;;;0.17;0.17;;;;;;;;;;5035491;28;20038;-70
2023/01/12 01:20:19;;;;;;;0.10;0.10;;;;;;;;;;5035184;28;20013;-70
2023/01/12 01:22:44;;;;;;;0.30;0.30;;;;;;;;;;5035261;28;20064;-70
2023/01/12 01:25:10;;;;;;;0.57;0.57;;;;;;;;;;5034896;28;20405;-70
2023/01/12 01:27:35;;;;;;;0.40;0.40;;;;;;;;;;5035432;28;20087;-71
2023/01/12 01:30:01;;;;;;;0.10;0.10;;;;;;;;;;5035331;28;20056;-71
2023/01/12 01:32:26;;;;;;;1.10;0.88;;;;;;;;;;5035270;28;20033;-71
2023/01/12 01:34:51;;;;;;;1.35;1.35;;;;;;;;;;5035376;28;20021;-71
2023/01/12 01:37:17;;;;;;;0.20;0.20;;;;;;;;;;5035196;28;20034;-72
2023/01/12 01:39:43;;;;;;;4.90;4.40;;;;;;;;;;5034897;28;20381;-70
2023/01/12 01:42:26;;;;;;;0.10;0.10;;;;;;;;;;5035237;28;20025;-70
2023/01/12 01:44:53;;;;;;;0.10;0.10;;;;;;;;;;5035486;28;20029;-70
2023/01/12 01:47:31;;;;;;;2.28;2.17;;;;;;;;;;5035124;28;20032;-70
2023/01/12 01:49:58;;;;;;;0.10;0.10;;;;;;;;;;5035026;28;20108;-71
2023/01/12 01:52:35;;;;;;;0.10;0.10;;;;;;;;;;5034991;28;20354;-71
2023/01/12 01:55:06;;;;;;;0.65;0.65;;;;;;;;;;5034480;28;20357;-71
2023/01/12 01:57:41;;;;;;;2.00;1.90;;;;;;;;;;5035016;28;20052;-70
2023/01/12 02:00:07;;;;;;;1.52;1.45;;;;;;;;;;5034915;28;20029;-70
2023/01/12 02:02:34;;;;;;;1.25;1.25;;;;;;;;;;5033520;28;20049;-70
2023/01/12 02:04:59;;;;;;;28.25;17.73;;;;;;;;;;5034790;28;20017;-70
2023/01/12 02:07:25;;;;;;;0.85;0.85;;;;;;;;;;5034644;28;20027;-72
2023/01/12 02:09:50;;;;;;;2.38;2.13;;;;;;;;;;5033177;28;20021;-72
2023/01/12 02:17:52;;;;;;;5.00;2.63;;;;;;;;;;5028494;28;20145;-72
2023/01/12 02:20:28;;;;;;;1.30;0.90;;;;;;;;;;5035091;28;20116;-70
2023/01/12 02:23:12;;;;;;;0.10;0.10;;;;;;;;;;5034727;28;20021;-70
2023/01/12 02:25:37;;;;;;;0.57;0.57;;;;;;;;;;5034366;28;20025;-70
2023/01/12 02:28:15;;;;;;;1.50;1.40;;;;;;;;;;5034364;28;20377;-70
2023/01/12 02:30:45;;;;;;;0.10;0.10;;;;;;;;;;5034179;28;20369;-72
2023/01/12 02:33:13;;;;;;;0.10;0.10;;;;;;;;;;5034492;28;20017;-70
2023/01/12 02:35:57;;;;;;;0.20;0.20;;;;;;;;;;5034264;28;20071;-70
2023/01/12 02:38:44;;;;;;;2.03;1.65;;;;;;;;;;5034171;28;20189;-70
2023/01/12 02:44:16;;;;;;;0.10;0.10;;;;;;;;;;5016498;28;20362;-71
2023/01/12 02:46:42;;;;;;;;;;;;;;;;;;5034397;28;20048;-72
2023/01/12 02:49:09;;;;;;;0.35;0.35;;;;;;;;;;5033515;28;19905;-72
2023/01/12 02:51:50;;;;;;;0.10;0.10;;;;;;;;;;5033726;28;20021;-71
2023/01/12 02:54:17;;;;;;;0.00;0.00;;;;;;;;;;5033965;28;20030;-71
2023/01/12 02:56:53;;;;;;;0.10;0.10;;;;;;;;;;5033169;28;20049;-72
2023/01/12 02:59:23;;;;;;;0.10;0.10;;;;;;;;;;5033790;28;20143;-72
2023/01/12 03:01:50;;;;;;;0.75;0.75;;;;;;;;;;5033385;28;20099;-72
2023/01/12 03:04:17;;;;;;;0.13;0.13;;;;;;;;;;5033665;28;20465;-70
2023/01/12 03:06:45;;;;;;;1.30;1.27;;;;;;;;;;5016063;28;20222;-70
2023/01/12 03:09:13;;;;;;;0.03;0.03;;;;;;;;;;5033685;28;20025;-71
2023/01/12 03:11:39;;;;;;;0.82;0.80;;;;;;;;;;5033572;28;20017;-71
2023/01/12 03:14:06;;;;;;;0.00;0.00;;;;;;;;;;5033590;28;20025;-71
2023/01/12 03:16:37;;;;;;;0.10;0.10;;;;;;;;;;5033335;28;20030;-70
2023/01/12 03:19:12;;;;;;;0.20;0.20;;;;;;;;;;5033404;28;20022;-70
2023/01/12 03:21:39;;;;;;;0.95;0.95;;;;;;;;;;5032413;28;20361;-70
2023/01/12 03:24:04;;;;;;;0.25;0.25;;;;;;;;;;5033074;28;20032;-69
2023/01/12 03:26:31;;;;;;;0.10;0.10;;;;;;;;;;5033447;28;20025;-70
2023/01/12 03:29:09;;;;;;;0.03;0.03;;;;;;;;;;5033182;28;20056;-70
2023/01/12 03:31:34;;;;;;;0.10;0.10;;;;;;;;;;5032821;28;20052;-70
2023/01/12 03:34:00;;;;;;;0.10;0.10;;;;;;;;;;5033098;28;20414;-70
2023/01/12 03:36:28;;;;;;;0.13;0.13;;;;;;;;;;5033305;28;20120;-70
2023/01/12 03:39:12;;;;;;;0.10;0.10;;;;;;;;;;5015754;28;20033;-70
2023/01/12 03:41:38;;;;;;;0.10;0.10;;;;;;;;;;5034926;28;20021;-70
2023/01/12 03:44:04;;;;;;;0.25;0.25;;;;;;;;;;5039752;28;20487;-70
2023/01/12 03:46:37;;;;;;;0.47;0.47;;;;;;;;;;5039848;28;20021;-70
2023/01/12 03:49:12;;;;;;;0.10;0.10;;;;;;;;;;5039977;28;20103;-70
2023/01/12 03:51:39;;;;;;;0.10;0.10;;;;;;;;;;5039760;28;20051;-70
2023/01/12 03:54:06;;;;;;;0.03;0.03;;;;;;;;;;5039286;28;20024;-70
2023/01/12 03:56:33;;;;;;;0.10;0.10;;;;;;;;;;5039933;28;20055;-72
2023/01/12 03:58:59;;;;;;;0.52;0.52;;;;;;;;;;5039841;28;20021;-72
2023/01/12 04:01:24;;;;;;;0.10;0.10;;;;;;;;;;5039403;28;20017;-72
2023/01/12 04:03:49;;;;;;;1.65;1.55;;;;;;;;;;5049196;28;20075;-72
2023/01/12 04:06:15;;;;;;;0.10;0.10;;;;;;;;;;5056400;28;20470;-73
2023/01/12 04:08:40;;;;;;;0.10;0.10;;;;;;;;;;5055621;28;20402;-73
2023/01/12 04:13:50;;;;;;;0.10;0.10;;;;;;;;;;5055949;28;20025;-70
2023/01/12 04:16:16;;;;;;;0.10;0.10;;;;;;;;;;5055900;28;20039;-70
2023/01/12 04:18:41;;;;;;;0.10;0.10;;;;;;;;;;5055349;28;20772;-70
2023/01/12 04:22:41;;;;;;;0.25;0.25;;;;;;;;;;5055503;28;20530;-71
2023/01/12 04:23:52;;;;;;;0.20;0.20;;;;;;;;;;5055868;28;20483;-71
2023/01/12 04:26:17;;;;;;;0.10;0.10;;;;;;;;;;5055714;28;20025;-71
2023/01/12 04:28:43;;;;;;;1.60;0.52;;;;;;;;;;5055599;28;20472;-71
2023/01/12 04:31:08;;;;;;;0.10;0.10;;;;;;;;;;5055356;28;20029;-71
2023/01/12 04:33:34;;;;;;;0.20;0.20;;;;;;;;;;5055536;28;20364;-71
2023/01/12 04:35:59;;;;;;;0.10;0.10;;;;;;;;;;5055240;28;20119;-71
2023/01/12 04:38:25;;;;;;;0.20;0.17;;;;;;;;;;5055682;28;20017;-71
2023/01/12 04:40:53;;;;;;;0.10;0.10;;;;;;;;;;5055461;28;20086;-70
2023/01/12 04:43:19;;;;;;;0.20;0.20;;;;;;;;;;5047719;28;20020;-70
2023/01/12 04:45:46;;;;;;;0.10;0.10;;;;;;;;;;5035490;28;20453;-70
2023/01/12 04:48:12;;;;;;;0.10;0.10;;;;;;;;;;5035586;28;20057;-72
2023/01/12 04:50:39;;;;;;;0.10;0.10;;;;;;;;;;5034841;28;20025;-71
2023/01/12 04:53:05;;;;;;;0.10;0.10;;;;;;;;;;5033898;28;20025;-71
2023/01/12 04:55:31;;;;;;;0.10;0.10;;;;;;;;;;5031764;28;20021;-71
2023/01/12 04:57:56;;;;;;;0.10;0.10;;;;;;;;;;5032553;28;20031;-71
2023/01/12 05:00:22;;;;;;;0.10;0.10;;;;;;;;;;5031682;28;20695;-70
2023/01/12 05:02:47;;;;;;;0.10;0.10;;;;;;;;;;5032254;28;20107;-73
2023/01/12 05:05:13;;;;;;;0.10;0.10;;;;;;;;;;5014512;28;20059;-73
2023/01/12 05:10:21;;;;;;;0.10;0.10;;;;;;;;;;5031646;28;20037;-71
2023/01/12 05:10:23;;;;;;;0.17;0.17;;;;;;;;;;5031457;28;20469;-72
2023/01/12 05:12:49;;;;;;;0.10;0.10;;;;;;;;;;5030004;28;20109;-71
2023/01/12 05:15:14;;;;;;;0.10;0.10;;;;;;;;;;5030193;28;20030;-70
2023/01/12 05:17:40;;;;;;;0.17;0.17;;;;;;;;;;5029370;28;20137;-72
2023/01/12 05:20:06;;;;;;;0.10;0.10;;;;;;;;;;5030222;28;20053;-72
2023/01/12 05:22:31;;;;;;;1.55;0.90;;;;;;;;;;5031305;28;20029;-72
2023/01/12 05:24:57;;;;;;;1.15;0.70;;;;;;;;;;5031184;28;20026;-70
2023/01/12 05:27:22;;;;;;;0.10;0.10;;;;;;;;;;5031840;28;20042;-71
2023/01/12 05:29:48;;;;;;;0.10;0.10;;;;;;;;;;5031708;28;20100;-69
2023/01/12 05:32:13;;;;;;;0.10;0.10;;;;;;;;;;5031515;28;20373;-70
2023/01/12 05:34:40;;;;;;;0.10;0.10;;;;;;;;;;5031369;28;20026;-73
2023/01/12 05:37:05;;;;;;;0.10;0.10;;;;;;;;;;5013951;28;20439;-70
2023/01/12 05:39:31;;;;;;;0.10;0.10;;;;;;;;;;5031600;28;20104;-71
2023/01/12 05:44:40;;;;;;;0.10;0.10;;;;;;;;;;5031295;28;20017;-70
2023/01/12 05:47:06;;;;;;;0.10;0.10;;;;;;;;;;5012815;28;20404;-71
2023/01/12 05:49:31;;;;;;;0.10;0.10;;;;;;;;;;5031651;28;20524;-70
2023/01/12 05:51:57;;;;;;;0.10;0.10;;;;;;;;;;5028587;28;20030;-72
2023/01/12 05:54:23;;;;;;;0.10;0.10;;;;;;;;;;5028672;28;20551;-71
2023/01/12 05:56:48;;;;;;;11.30;2.90;;;;;;;;;;5028714;28;20480;-73
2023/01/12 05:59:13;;;;;;;4.85;4.38;;;;;;;;;;5029830;28;20036;-73
2023/01/12 06:01:40;;;;;;;0.10;0.10;;;;;;;;;;5028986;28;20041;-70
2023/01/12 06:04:05;;;;;;;0.00;0.00;;;;;;;;;;5030002;28;20022;-70
2023/01/12 06:06:31;;;;;;;0.10;0.10;;;;;;;;;;5031018;28;20082;-71
2023/01/12 06:08:57;;;;;;;0.10;0.10;;;;;;;;;;5031021;28;20034;-71
2023/01/12 06:14:07;;;;;;;0.10;0.10;;;;;;;;;;5030253;28;20025;-71
2023/01/12 06:16:35;;;;;;;0.10;0.10;;;;;;;;;;5030581;28;20041;-70
2023/01/12 06:19:01;;;;;;;0.10;0.10;;;;;;;;;;5030156;28;20052;-71
2023/01/12 06:21:26;;;;;;;0.10;0.10;;;;;;;;;;5029765;28;20056;-71
2023/01/12 06:23:52;;;;;;;0.10;0.10;;;;;;;;;;5028829;28;20461;-72
2023/01/12 06:26:17;;;;;;;0.10;0.10;;;;;;;;;;5030675;28;20038;-72
2023/01/12 06:28:42;;;;;;;0.05;0.05;;;;;;;;;;5030161;28;20047;-71
2023/01/12 06:31:09;;;;;;;0.22;0.22;;;;;;;;;;5030178;28;20171;-72
2023/01/12 06:33:35;;;;;;;0.10;0.10;;;;;;;;;;5028877;28;20029;-72
2023/01/12 06:36:01;;;;;;;0.10;0.10;;;;;;;;;;5027766;28;20380;-71
2023/01/12 06:38:27;;;;;;;0.10;0.10;;;;;;;;;;5029726;28;20029;-72
2023/01/12 06:40:56;;;;;;;0.10;0.10;;;;;;;;;;5029821;28;20029;-72
2023/01/12 06:43:22;;;;;;;0.20;0.20;;;;;;;;;;5029913;28;20042;-72
2023/01/12 06:45:47;;;;;;;0.10;0.10;;;;;;;;;;5030109;28;20025;-72
2023/01/12 06:48:13;;;;;;;0.17;0.17;;;;;;;;;;5029790;28;20047;-72
2023/01/12 06:50:38;;;;;;;0.10;0.10;;;;;;;;;;5029450;28;20033;-71
2023/01/12 06:53:05;;;;;;;0.10;0.10;;;;;;;;;;5029878;28;20091;-71
2023/01/12 06:55:31;;;;;;;0.10;0.10;;;;;;;;;;5030023;28;20049;-71
2023/01/12 06:58:00;;;;;;;0.10;0.10;;;;;;;;;;5028490;28;20072;-71
2023/01/12 07:00:25;;;;;;;0.32;0.32;;;;;;;;;;5029535;28;20020;-70
2023/01/12 07:02:51;;;;;;;0.10;0.10;;;;;;;;;;5011900;28;20472;-71
2023/01/12 07:05:16;;;;;;;0.10;0.10;;;;;;;;;;5029610;28;20029;-72
2023/01/12 07:07:42;;;;;;;0.10;0.10;;;;;;;;;;5028874;28;20048;-71
2023/01/12 07:10:09;;;;;;;0.20;0.20;;;;;;;;;;5028917;28;20108;-71
2023/01/12 07:12:34;;;;;;;0.10;0.10;;;;;;;;;;5029776;28;20061;-71
2023/01/12 07:15:00;;;;;;;0.10;0.10;;;;;;;;;;5029023;28;20507;-71
2023/01/12 07:17:25;;;;;;;0.10;0.10;;;;;;;;;;5029029;28;20075;-72
2023/01/12 07:19:51;;;;;;;0.10;0.10;;;;;;;;;;5029193;28;20029;-72
2023/01/12 07:22:16;;;;;;;0.10;0.10;;;;;;;;;;5029519;28;20018;-72
2023/01/12 07:24:42;;;;;;;0.10;0.10;;;;;;;;;;5029509;28;20105;-73
2023/01/12 07:27:07;;;;;;;0.30;0.20;;;;;;;;;;5028811;28;20028;-72
2023/01/12 07:29:33;;;;;;;0.20;0.20;;;;;;;;;;5029273;28;20052;-72
2023/01/12 07:31:58;;;;;;;0.10;0.10;;;;;;;;;;5011749;28;20425;-72
2023/01/12 07:34:23;;;;;;;0.10;0.10;;;;;;;;;;5029749;28;20029;-72
2023/01/12 07:36:49;;;;;;;0.10;0.10;;;;;;;;;;5029367;28;20037;-72
2023/01/12 07:39:15;;;;;;;0.32;0.32;;;;;;;;;;5028766;28;20022;-72
2023/01/12 07:44:25;;;;;;;0.10;0.10;;;;;;;;;;5029501;28;20433;-72
2023/01/12 07:46:50;;;;;;;0.10;0.10;;;;;;;;;;5028839;28;20045;-72
2023/01/12 07:49:15;;;;;;;1.08;1.08;;;;;;;;;;5011487;28;20032;-72
2023/01/12 07:51:41;;;;;;;0.10;0.10;;;;;;;;;;5029391;28;20037;-72
2023/01/12 07:54:06;;;;;;;0.10;0.10;;;;;;;;;;5029091;28;20434;-72
2023/01/12 07:56:32;;;;;;;0.10;0.10;;;;;;;;;;5028346;28;20022;-72
2023/01/12 07:58:57;;;;;;;0.10;0.10;;;;;;;;;;5029288;28;20052;-72
2023/01/12 08:01:23;;;;;;;0.20;0.20;;;;;;;;;;5028221;28;20334;-72
2023/01/12 08:03:48;;;;;;;0.40;0.40;;;;;;;;;;5028951;28;20461;-72
2023/01/12 08:06:14;;;;;;;1.83;0.85;;;;;;;;;;5029329;28;20225;-71
2023/01/12 08:08:39;;;;;;;0.30;0.30;;;;;;;;;;5027651;28;20006;-71
2023/01/12 08:11:06;;;;;;;0.57;0.57;;;;;;;;;;5028905;28;20108;-71
2023/01/12 08:13:32;;;;;;;0.20;0.20;;;;;;;;;;5029547;28;20018;-71
2023/01/12 08:16:05;;;;;;;0.43;0.43;;;;;;;;;;5028775;28;20163;-71
2023/01/12 08:18:32;;;;;;;0.43;0.43;;;;;;;;;;5027745;28;20026;-71
2023/01/12 08:20:59;;;;;;;0.20;0.20;;;;;;;;;;5028356;28;20376;-70
2023/01/12 08:23:28;;;;;;;0.10;0.10;;;;;;;;;;5028686;28;20049;-71
2023/01/12 08:25:57;;;;;;;0.10;0.10;;;;;;;;;;5027034;28;20029;-72
2023/01/12 08:28:42;;;;;;;0.15;0.15;;;;;;;;;;5028105;28;20021;-71
2023/01/12 08:31:12;;;;;;;0.10;0.10;;;;;;;;;;5012839;28;20425;-73
2023/01/12 08:33:38;;;;;;;0.10;0.10;;;;;;;;;;5024012;28;20570;-72
2023/01/12 08:36:04;;;;;;;0.10;0.10;;;;;;;;;;5036726;28;20120;-73
2023/01/12 08:38:30;;;;;;;0.10;0.10;;;;;;;;;;5046684;28;20373;-72
2023/01/12 08:46:23;;;;;;;0.10;0.10;;;;;;;;;;5049952;28;20028;-73
2023/01/12 08:48:48;;;;;;;0.10;0.10;;;;;;;;;;5038951;28;20090;-72
2023/01/12 08:51:14;;;;;;;0.63;0.63;;;;;;;;;;5033006;28;20029;-73
2023/01/12 08:53:39;;;;;;;0.10;0.10;;;;;;;;;;5029335;28;20018;-72
2023/01/12 08:56:05;;;;;;;0.10;0.10;;;;;;;;;;5028331;28;20152;-73
2023/01/12 08:58:31;;;;;;;0.10;0.10;;;;;;;;;;5029206;28;20071;-73
2023/01/12 09:00:56;;;;;;;0.10;0.10;;;;;;;;;;5019596;28;20370;-72
2023/01/12 09:03:21;;;;;;;0.10;0.10;;;;;;;;;;5011217;28;20161;-74
2023/01/12 09:05:47;;;;;;;0.10;0.10;;;;;;;;;;4998486;28;20030;-73
2023/01/12 09:08:13;;;;;;;0.10;0.10;;;;;;;;;;5011054;28;20093;-74
2023/01/12 09:10:38;;;;;;;0.10;0.10;;;;;;;;;;5014020;28;20022;-72
2023/01/12 09:13:04;;;;;;;0.10;0.10;;;;;;;;;;5010856;28;20040;-74
2023/01/12 09:15:29;;;;;;;0.10;0.10;;;;;;;;;;5011160;28;20064;-74
2023/01/12 09:17:55;;;;;;;0.28;0.28;;;;;;;;;;5010915;28;20490;-73
2023/01/12 09:20:21;;;;;;;0.10;0.10;;;;;;;;;;5010249;28;20038;-73
2023/01/12 09:22:46;;;;;;;0.10;0.10;;;;;;;;;;5009782;28;20077;-72
2023/01/12 09:25:12;;;;;;;0.20;0.20;;;;;;;;;;5011442;28;20617;-75
2023/01/12 09:27:38;;;;;;;0.10;0.10;;;;;;;;;;5011195;28;20029;-76
2023/01/12 09:30:05;;;;;;;0.10;0.10;;;;;;;;;;5009378;28;20083;-72
2023/01/12 09:32:30;;;;;;;0.32;0.32;;;;;;;;;;5009909;28;20022;-73
2023/01/12 09:34:58;;;;;;;0.10;0.10;;;;;;;;;;5010238;28;20028;-73
2023/01/12 09:37:23;;;;;;;0.10;0.10;;;;;;;;;;5010450;28;20041;-73
2023/01/12 09:39:49;;;;;;;0.10;0.10;;;;;;;;;;5007725;28;20357;-72
2023/01/12 09:48:04;;;;;;;0.10;0.10;;;;;;;;;;4995505;28;20515;-73
2023/01/12 09:50:35;;;;;;;0.17;0.17;;;;;;;;;;5006134;28;20034;-72
2023/01/12 09:53:03;;;;;;;0.28;0.28;;;;;;;;;;5009759;28;20025;-73
2023/01/12 09:55:35;;;;;;;0.10;0.10;;;;;;;;;;5010144;28;20462;-74
2023/01/12 09:58:10;;;;;;;0.10;0.10;;;;;;;;;;5010258;28;20137;-74
2023/01/12 10:00:35;;;;;;;0.10;0.10;;;;;;;;;;5007566;28;20934;-73
2023/01/12 10:03:09;;;;;;;0.10;0.10;;;;;;;;;;5022882;28;20074;-73
2023/01/12 10:05:49;;;;;;;0.10;0.10;;;;;;;;;;5010148;28;20382;-72
2023/01/12 10:08:14;;;;;;;0.10;0.10;;;;;;;;;;5028974;28;20022;-70
2023/01/12 10:10:42;;;;;;;0.10;0.10;;;;;;;;;;5028892;28;20119;-75
2023/01/12 10:13:12;;;;;;;0.10;0.10;;;;;;;;;;5041186;28;20049;-76
2023/01/12 10:15:41;;;;;;;0.10;0.10;;;;;;;;;;5016443;28;20028;-74
2023/01/12 10:18:12;;;;;;;0.20;0.20;;;;;;;;;;5028744;28;20056;-74
2023/01/12 10:20:42;;;;;;;0.10;0.10;;;;;;;;;;5029140;28;20356;-75
2023/01/12 10:23:07;;;;;;;0.10;0.10;;;;;;;;;;5029530;28;20029;-73
2023/01/12 10:25:35;;;;;;;0.10;0.10;;;;;;;;;;5010431;28;20038;-71
2023/01/12 10:28:20;;;;;;;0.10;0.10;;;;;;;;;;5028749;28;20106;-73
2023/01/12 10:30:46;;;;;;;0.20;0.20;;;;;;;;;;5020820;28;20101;-72
2023/01/12 10:33:16;;;;;;;0.20;0.20;;;;;;;;;;5028402;28;20100;-73
2023/01/12 10:35:54;;;;;;;0.17;0.17;;;;;;;;;;5027498;28;20033;-75
2023/01/12 10:38:28;;;;;;;0.10;0.10;;;;;;;;;;5029104;28;20053;-75
2023/01/12 10:41:04;;;;;;;0.10;0.10;;;;;;;;;;5028770;28;20045;-75
2023/01/12 10:43:33;;;;;;;0.10;0.10;;;;;;;;;;5028955;28;20037;-74
2023/01/12 10:46:04;;;;;;;0.10;0.10;;;;;;;;;;5010256;28;20108;-73
2023/01/12 10:48:31;;;;;;;0.10;0.10;;;;;;;;;;5026597;28;20765;-74
2023/01/12 10:50:56;;;;;;;0.20;0.20;;;;;;;;;;5005569;28;20343;-75
2023/01/12 10:53:28;;;;;;;0.10;0.10;;;;;;;;;;5028342;28;20069;-74
2023/01/12 10:55:54;;;;;;;0.10;0.10;;;;;;;;;;5027440;28;20036;-74
2023/01/12 10:58:29;;;;;;;0.20;0.20;;;;;;;;;;5016261;28;20025;-74
2023/01/12 11:00:55;;;;;;;0.20;0.20;;;;;;;;;;5013041;28;20041;-73
2023/01/12 11:03:29;;;;;;;0.20;0.20;;;;;;;;;;5011892;28;20067;-74
2023/01/12 11:05:55;;;;;;;0.20;0.20;;;;;;;;;;5011492;28;20452;-73
2023/01/12 11:08:30;;;;;;;0.20;0.20;;;;;;;;;;5029670;28;20100;-73
2023/01/12 11:10:56;;;;;;;0.45;0.45;;;;;;;;;;5011369;28;20041;-75
2023/01/12 11:13:26;;;;;;;3.80;0.82;;;;;;;;;;5011585;28;20064;-73
2023/01/12 11:15:58;;;;;;;0.17;0.17;;;;;;;;;;5028877;28;20047;-73
2023/01/12 11:18:50;;;;;;;0.20;0.20;;;;;;;;;;5011804;28;20087;-73
2023/01/12 11:21:18;;;;;;;0.20;0.20;;;;;;;;;;5005740;28;20112;-74
2023/01/12 11:23:44;;;;;;;0.20;0.20;;;;;;;;;;5029186;28;20322;-73
2023/01/12 11:26:42;;;;;;;0.20;0.20;;;;;;;;;;5029292;28;20853;-74
2023/01/12 11:29:27;;;;;;;0.22;0.22;;;;;;;;;;4977557;28;20037;-73
2023/01/12 11:31:55;;;;;;;0.20;0.20;;;;;;;;;;5028493;28;20044;-73
2023/01/12 11:34:23;;;;;;;0.30;0.30;;;;;;;;;;4994993;28;20029;-72
2023/01/12 11:36:54;;;;;;;0.20;0.20;;;;;;;;;;5029554;28;20045;-65
2023/01/12 11:39:22;;;;;;;0.20;0.20;;;;;;;;;;5029377;28;20111;-69
2023/01/12 11:44:46;;;;;;;0.20;0.20;;;;;;;;;;5024979;28;20376;-70
2023/01/12 11:47:12;;;;;;;0.45;0.40;;;;;;;;;;5027752;28;20057;-71
2023/01/12 11:49:41;;;;;;;0.22;0.22;;;;;;;;;;5009926;28;20029;-72
2023/01/12 11:52:10;;;;;;;3.05;1.08;;;;;;;;;;5027584;28;20029;-72
2023/01/12 11:54:36;;;;;;;0.40;0.40;;;;;;;;;;5011507;28;20034;-70
2023/01/12 11:57:20;;;;;;;0.13;0.13;;;;;;;;;;5028954;28;20013;-71
2023/01/12 12:00:04;;;;;;;0.10;0.10;;;;;;;;;;5028609;28;20030;-71
2023/01/12 12:02:39;;;;;;;3.28;1.25;;;;;;;;;;5029413;28;20457;-70
2023/01/12 12:05:05;;;;;;;3.13;2.92;;;;;;;;;;5032892;28;20033;-73
2023/01/12 12:07:36;;;;;;;0.82;0.82;;;;;;;;;;5032738;28;20080;-70
2023/01/12 12:10:13;;;;;;;0.45;0.38;;;;;;;;;;5032488;28;20029;-69
2023/01/12 12:12:58;;;;;;;0.95;0.57;;;;;;;;;;5016731;28;20495;-71
2023/01/12 12:15:26;;;;;;;0.95;0.35;;;;;;;;;;5032567;28;20029;-70
2023/01/12 12:17:51;;;;;;;0.35;0.20;;;;;;;;;;5031825;28;20127;-71
2023/01/12 12:20:31;;;;;;;0.10;0.10;;;;;;;;;;5015064;28;20124;-70
2023/01/12 12:23:06;;;;;;;0.75;0.75;;;;;;;;;;5033171;28;20061;-70
2023/01/12 12:25:43;;;;;;;0.10;0.10;;;;;;;;;;5032651;28;20032;-72
2023/01/12 12:28:27;;;;;;;0.20;0.20;;;;;;;;;;5030983;28;20439;-71
2023/01/12 12:30:58;;;;;;;0.10;0.10;;;;;;;;;;5013119;28;20029;-70
2023/01/12 12:33:29;;;;;;;0.40;0.30;;;;;;;;;;4990829;28;20029;-71
2023/01/12 12:36:08;;;;;;;0.10;0.10;;;;;;;;;;5029586;28;20030;-72
2023/01/12 12:38:33;;;;;;;0.10;0.10;;;;;;;;;;5029383;28;20388;-70
2023/01/12 12:46:59;;;;;;;0.10;0.10;;;;;;;;;;5029287;28;20163;-71
2023/01/12 12:49:27;;;;;;;0.80;0.38;;;;;;;;;;5030035;28;20017;-70
2023/01/12 12:51:55;;;;;;;0.20;0.20;;;;;;;;;;5029162;28;20498;-71
2023/01/12 12:54:21;;;;;;;0.22;0.22;;;;;;;;;;5029772;28;20117;-71
2023/01/12 12:56:47;;;;;;;0.35;0.35;;;;;;;;;;5029792;28;20044;-70
2023/01/12 12:59:31;;;;;;;0.50;0.40;;;;;;;;;;5030003;28;20026;-70
2023/01/12 13:01:58;;;;;;;2.40;0.82;;;;;;;;;;5029235;28;20052;-70
2023/01/12 13:04:42;;;;;;;1.55;0.43;;;;;;;;;;5029869;28;20021;-71
2023/01/12 13:07:12;;;;;;;2.80;0.57;;;;;;;;;;5031392;28;20025;-70
2023/01/12 13:09:38;;;;;;;0.20;0.20;;;;;;;;;;5030939;28;20022;-70
2023/01/12 13:12:04;;;;;;;0.10;0.10;;;;;;;;;;5030779;28;20021;-73
2023/01/12 13:14:29;;;;;;;0.60;0.28;;;;;;;;;;5029625;28;20033;-70
2023/01/12 13:16:57;;;;;;;0.10;0.10;;;;;;;;;;5030371;28;20068;-71
2023/01/12 13:19:37;;;;;;;0.10;0.10;;;;;;;;;;5024865;28;20485;-70
2023/01/12 13:22:22;;;;;;;0.25;0.22;;;;;;;;;;5028572;28;20488;-71
2023/01/12 13:24:47;;;;;;;0.20;0.20;;;;;;;;;;5030832;28;20628;-73
2023/01/12 13:27:31;;;;;;;0.10;0.10;;;;;;;;;;5031827;28;20022;-71
2023/01/12 13:30:15;;;;;;;0.10;0.10;;;;;;;;;;5030544;28;20113;-71
2023/01/12 13:32:43;;;;;;;0.20;0.20;;;;;;;;;;5030738;28;20437;-70
2023/01/12 13:35:26;;;;;;;0.70;0.35;;;;;;;;;;5028660;28;20043;-71
2023/01/12 13:37:55;;;;;;;0.57;0.50;;;;;;;;;;5010089;28;20034;-72
2023/01/12 13:40:25;;;;;;;0.60;0.40;;;;;;;;;;5028113;28;20354;-71
2023/01/12 13:45:35;;;;;;;0.10;0.10;;;;;;;;;;5028955;28;20279;-72
2023/01/12 13:48:03;;;;;;;0.30;0.30;;;;;;;;;;5028226;28;20555;-71
2023/01/12 13:50:29;;;;;;;0.35;0.35;;;;;;;;;;5028885;28;20025;-71
2023/01/12 13:52:59;;;;;;;1.15;0.45;;;;;;;;;;5028782;28;20029;-71
2023/01/12 13:55:29;;;;;;;0.10;0.10;;;;;;;;;;5028965;28;20399;-70
2023/01/12 13:58:05;;;;;;;0.10;0.10;;;;;;;;;;5028399;28;20048;-72
2023/01/12 14:00:32;;;;;;;0.30;0.30;;;;;;;;;;5028297;28;20535;-72
2023/01/12 14:02:57;;;;;;;0.90;0.50;;;;;;;;;;5028124;28;20133;-71
2023/01/12 14:05:24;;;;;;;0.20;0.20;;;;;;;;;;5011659;28;20478;-71
2023/01/12 14:07:51;;;;;;;3.10;0.50;;;;;;;;;;5028909;28;20411;-74
2023/01/12 14:10:17;;;;;;;0.35;0.35;;;;;;;;;;5028344;28;20026;-74
2023/01/12 14:12:48;;;;;;;0.77;0.52;;;;;;;;;;5029093;28;20080;-75
2023/01/12 14:18:05;;;;;;;0.55;0.40;;;;;;;;;;5028597;28;20045;-75
2023/01/12 14:20:38;;;;;;;0.20;0.20;;;;;;;;;;5029193;28;20021;-75
2023/01/12 14:23:27;;;;;;;0.10;0.10;;;;;;;;;;5028581;28;20021;-74
2023/01/12 14:26:03;;;;;;;0.20;0.20;;;;;;;;;;5002912;28;20128;-76
2023/01/12 14:28:28;;;;;;;1.35;0.70;;;;;;;;;;5028673;28;20027;-73
2023/01/12 14:30:54;;;;;;;0.10;0.10;;;;;;;;;;5030505;28;20100;-75
2023/01/12 14:33:22;;;;;;;0.60;0.30;;;;;;;;;;5030737;28;20109;-72
2023/01/12 14:35:49;;;;;;;0.10;0.10;;;;;;;;;;5030406;28;20025;-72
2023/01/12 14:38:16;;;;;;;0.10;0.10;;;;;;;;;;5030914;28;20025;-72
2023/01/12 14:40:47;;;;;;;5.43;1.20;;;;;;;;;;5030513;28;20457;-71
2023/01/12 14:48:53;;;;;;;0.15;0.15;;;;;;;;;;5029366;28;20029;-71
2023/01/12 14:51:23;;;;;;;0.30;0.30;;;;;;;;;;5030391;28;20053;-72
2023/01/12 14:53:54;;;;;;;0.10;0.10;;;;;;;;;;5012647;28;20420;-75
2023/01/12 14:56:21;;;;;;;0.82;0.50;;;;;;;;;;5029439;28;20076;-73
2023/01/12 14:58:47;;;;;;;0.20;0.20;;;;;;;;;;5030123;28;20436;-74
2023/01/12 15:01:25;;;;;;;1.70;1.60;;;;;;;;;;5030050;28;20036;-72
2023/01/12 15:03:52;;;;;;;0.50;0.50;;;;;;;;;;5030146;28;20920;-74
2023/01/12 15:06:17;;;;;;;1.45;0.32;;;;;;;;;;5012419;28;20100;-72
2023/01/12 15:08:57;;;;;;;0.35;0.35;;;;;;;;;;5027662;28;20112;-72
2023/01/12 15:11:22;;;;;;;;;;;;;;;;;;5028518;28;20043;-72
2023/01/12 15:13:54;;;;;;;0.20;0.20;;;;;;;;;;5028314;28;20276;-74
2023/01/12 15:27:20;;;;;;;0.17;0.17;;;;;;;;;;5028736;28;20115;-69
2023/01/12 15:29:45;;;;;;;;;;;;;;;;;;5027287;28;20030;-71
2023/01/12 15:32:18;;;;;;;0.82;0.82;;;;;;;;;;5028125;28;19905;-72
2023/01/12 15:34:43;;;;;;;0.30;0.30;;;;;;;;;;5028007;28;20026;-73
2023/01/12 15:37:16;;;;;;;0.63;0.63;;;;;;;;;;5029001;28;20457;-71
2023/01/12 15:39:42;;;;;;;0.88;0.50;;;;;;;;;;5028212;28;20125;-72
2023/01/12 15:42:17;;;;;;;0.30;0.30;;;;;;;;;;5029116;28;20168;-74
2023/01/12 15:44:43;;;;;;;0.20;0.20;;;;;;;;;;5029529;28;20021;-75
2023/01/12 15:47:10;;;;;;;0.10;0.10;;;;;;;;;;5029180;28;20080;-71
2023/01/12 15:49:35;;;;;;;0.13;0.13;;;;;;;;;;5029556;28;20060;-71
2023/01/12 15:52:01;;;;;;;2.65;2.55;;;;;;;;;;5028796;28;20442;-71
2023/01/12 15:54:26;;;;;;;0.10;0.10;;;;;;;;;;5029017;28;20087;-72
2023/01/12 15:56:52;;;;;;;0.20;0.20;;;;;;;;;;5028668;28;20040;-74
2023/01/12 15:59:18;;;;;;;0.70;0.52;;;;;;;;;;5028727;28;20036;-72